createdAt,value
2018-05-21T00:01:13.691Z,101301
2018-05-21T00:06:05.959Z,101294
2018-05-21T00:10:58.168Z,101288
2018-05-21T00:15:49.695Z,101293
2018-05-21T00:20:41.940Z,101283
2018-05-21T00:25:33.467Z,101284
2018-05-21T00:30:24.961Z,101280
2018-05-21T00:35:16.942Z,101278
2018-05-21T00:40:08.426Z,101274
2018-05-21T00:44:59.965Z,101276
2018-05-21T00:49:51.554Z,101264
2018-05-21T00:55:01.492Z,101257
2018-05-21T00:59:53.038Z,101257
2018-05-21T01:04:45.596Z,101254
2018-05-21T01:09:37.096Z,101250
2018-05-21T01:14:28.602Z,101261
2018-05-21T01:19:20.848Z,101258
2018-05-21T01:24:13.077Z,101255
2018-05-21T01:29:04.575Z,101250
2018-05-21T01:33:56.060Z,101246
2018-05-21T01:38:47.674Z,101248
2018-05-21T01:43:39.186Z,101251
2018-05-21T01:48:30.673Z,101250
2018-05-21T01:53:22.959Z,101244
2018-05-21T01:58:14.463Z,101233
2018-05-21T02:03:06.684Z,101231
2018-05-21T02:07:58.175Z,101227
2018-05-21T02:12:50.359Z,101226
2018-05-21T02:17:41.858Z,101221
2018-05-21T02:22:33.353Z,101214
2018-05-21T02:27:24.856Z,101211
2018-05-21T02:32:16.351Z,101219
2018-05-21T02:37:07.890Z,101215
2018-05-21T02:41:59.420Z,101216
2018-05-21T02:46:50.959Z,101210
2018-05-21T02:51:42.447Z,101204
2018-05-21T02:56:34.690Z,101202
2018-05-21T03:01:29.267Z,101201
2018-05-21T03:06:21.665Z,101192
2018-05-21T03:11:13.915Z,101195
2018-05-21T03:16:05.452Z,101193
2018-05-21T03:20:57.861Z,101190
2018-05-21T03:25:49.381Z,101185
2018-05-21T03:30:40.881Z,101188
2018-05-21T03:35:33.105Z,101187
2018-05-21T03:40:25.532Z,101176
2018-05-21T03:45:17.101Z,101179
2018-05-21T03:50:08.605Z,101182
2018-05-21T03:55:00.090Z,101181
2018-05-21T04:00:11.409Z,101180
2018-05-21T04:05:02.972Z,101173
2018-05-21T04:09:56.094Z,101172
2018-05-21T04:14:48.333Z,101166
2018-05-21T04:19:40.588Z,101167
2018-05-21T04:24:32.827Z,101163
2018-05-21T04:29:24.344Z,101162
2018-05-21T04:34:15.847Z,101166
2018-05-21T04:39:07.435Z,101161
2018-05-21T04:43:58.906Z,101161
2018-05-21T04:48:50.508Z,101148
2018-05-21T04:53:42.012Z,101149
2018-05-21T04:58:33.506Z,101152
2018-05-21T05:03:25.008Z,101148
2018-05-21T05:08:17.268Z,101149
2018-05-21T05:13:09.525Z,101140
2018-05-21T05:18:01.793Z,101142
2018-05-21T05:22:53.287Z,101139
2018-05-21T05:27:44.796Z,101131
2018-05-21T05:32:36.309Z,101121
2018-05-21T05:37:28.800Z,101105
2018-05-21T05:42:20.308Z,101109
2018-05-21T05:47:11.811Z,101114
2018-05-21T05:52:03.323Z,101112
2018-05-21T05:56:55.556Z,101111
2018-05-21T06:01:47.047Z,101106
2018-05-21T06:06:38.879Z,101098
2018-05-21T06:11:30.383Z,101101
2018-05-21T06:16:22.652Z,101101
2018-05-21T06:21:14.904Z,101099
2018-05-21T06:26:06.457Z,101101
2018-05-21T06:30:57.926Z,101093
2018-05-21T06:35:49.415Z,101080
2018-05-21T06:40:40.923Z,101081
2018-05-21T06:45:33.165Z,101070
2018-05-21T06:50:25.425Z,101067
2018-05-21T06:55:17.671Z,101071
2018-05-21T07:00:09.955Z,101074
2018-05-21T07:05:01.478Z,101089
2018-05-21T07:09:52.996Z,101074
2018-05-21T07:14:45.203Z,101068
2018-05-21T07:19:36.692Z,101067
2018-05-21T07:24:28.978Z,101060
2018-05-21T07:29:20.497Z,101061
2018-05-21T07:34:12.006Z,101057
2018-05-21T07:39:03.607Z,101050
2018-05-21T07:43:55.115Z,101050
2018-05-21T07:48:46.618Z,101043
2018-05-21T07:53:38.120Z,101034
2018-05-21T07:58:30.387Z,101029
2018-05-21T08:03:22.624Z,101027
2018-05-21T08:08:14.247Z,101020
2018-05-21T08:13:05.788Z,101008
2018-05-21T08:17:57.322Z,100999
2018-05-21T08:22:48.836Z,101001
2018-05-21T08:27:40.356Z,100982
2018-05-21T08:32:31.943Z,100991
2018-05-21T08:37:24.175Z,100988
2018-05-21T08:42:15.683Z,100980
2018-05-21T08:47:07.233Z,100987
2018-05-21T08:51:58.742Z,100975
2018-05-21T08:56:50.255Z,100973
2018-05-21T09:01:41.770Z,100979
2018-05-21T09:06:34.057Z,100967
2018-05-21T09:11:25.622Z,100963
2018-05-21T09:16:17.226Z,100954
2018-05-21T09:21:08.753Z,100960
2018-05-21T09:26:00.383Z,100943
2018-05-21T09:30:51.818Z,100949
2018-05-21T09:35:43.380Z,100938
2018-05-21T09:40:34.906Z,100932
2018-05-21T09:45:26.411Z,100924
2018-05-21T09:50:17.922Z,100927
2018-05-21T09:55:10.156Z,100924
2018-05-21T10:00:01.702Z,100910
2018-05-21T10:04:54.957Z,100909
2018-05-21T10:09:46.492Z,100916
2018-05-21T10:14:38.021Z,100899
2018-05-21T10:19:29.571Z,100893
2018-05-21T10:24:21.065Z,100897
2018-05-21T10:29:12.580Z,100885
2018-05-21T10:34:04.070Z,100889
2018-05-21T10:38:55.608Z,100873
2018-05-21T10:43:47.192Z,100869
2018-05-21T10:48:39.392Z,100885
2018-05-21T10:53:30.878Z,100875
2018-05-21T10:58:22.410Z,100872
2018-05-21T11:03:13.927Z,100867
2018-05-21T11:08:05.493Z,100859
2018-05-21T11:12:56.974Z,100855
2018-05-21T11:17:49.289Z,100854
2018-05-21T11:22:41.507Z,100838
2018-05-21T11:27:33.004Z,100827
2018-05-21T11:32:25.265Z,100820
2018-05-21T11:37:17.526Z,100818
2018-05-21T11:42:09.031Z,100808
2018-05-21T11:47:00.542Z,100808
2018-05-21T11:51:52.034Z,100790
2018-05-21T11:56:43.592Z,100794
2018-05-21T12:01:35.090Z,100790
2018-05-21T12:06:26.604Z,100783
2018-05-21T12:11:18.127Z,100777
2018-05-21T12:16:09.733Z,100771
2018-05-21T12:21:01.243Z,100760
2018-05-21T12:25:52.745Z,100773
2018-05-21T12:30:44.987Z,100776
2018-05-21T12:35:36.482Z,100769
2018-05-21T12:40:27.984Z,100760
2018-05-21T12:45:19.504Z,100756
2018-05-21T12:50:11.793Z,100767
2018-05-21T12:55:03.362Z,100761
2018-05-21T12:59:54.886Z,100751
2018-05-21T13:04:46.406Z,100757
2018-05-21T13:09:37.895Z,100755
2018-05-21T13:14:30.161Z,100751
2018-05-21T13:19:22.722Z,100740
2018-05-21T13:24:14.332Z,100735
2018-05-21T13:29:05.777Z,100723
2018-05-21T13:33:58.051Z,100733
2018-05-21T13:38:49.592Z,100724
2018-05-21T13:43:41.103Z,100714
2018-05-21T13:48:34.596Z,100711
2018-05-21T13:53:26.087Z,100709
2018-05-21T13:58:17.599Z,100701
2018-05-21T14:03:09.099Z,100704
2018-05-21T14:08:00.590Z,100701
2018-05-21T14:12:52.828Z,100697
2018-05-21T14:17:44.364Z,100698
2018-05-21T14:22:36.617Z,100691
2018-05-21T14:27:28.129Z,100688
2018-05-21T14:32:19.665Z,100678
2018-05-21T14:37:11.192Z,100679
2018-05-21T14:42:02.761Z,100672
2018-05-21T14:46:54.311Z,100662
2018-05-21T14:51:46.556Z,100660
2018-05-21T14:56:38.815Z,100654
2018-05-21T15:01:31.082Z,100643
2018-05-21T15:06:22.629Z,100642
2018-05-21T15:11:14.141Z,100635
2018-05-21T15:16:05.729Z,100641
2018-05-21T15:20:57.249Z,100632
2018-05-21T15:25:50.025Z,100624
2018-05-21T15:30:41.529Z,100627
2018-05-21T15:35:33.777Z,100622
2018-05-21T15:40:25.310Z,100616
2018-05-21T15:45:16.845Z,100619
2018-05-21T15:50:08.346Z,100611
2018-05-21T15:55:00.571Z,100605
2018-05-21T15:59:52.072Z,100606
2018-05-21T16:04:44.336Z,100600
2018-05-21T16:09:35.835Z,100596
2018-05-21T16:14:27.342Z,100596
2018-05-21T16:19:18.871Z,100591
2018-05-21T16:24:10.380Z,100591
2018-05-21T16:29:02.221Z,100578
2018-05-21T16:33:53.732Z,100576
2018-05-21T16:38:46.196Z,100578
2018-05-21T16:43:37.712Z,100579
2018-05-21T16:48:29.249Z,100578
2018-05-21T16:53:20.770Z,100574
2018-05-21T16:58:12.338Z,100571
2018-05-21T17:03:03.880Z,100569
2018-05-21T17:07:55.377Z,100565
2018-05-21T17:12:46.877Z,100565
2018-05-21T17:17:38.397Z,100564
2018-05-21T17:22:29.938Z,100564
2018-05-21T17:27:21.521Z,100555
2018-05-21T17:32:13.075Z,100553
2018-05-21T17:37:04.584Z,100551
2018-05-21T17:41:56.088Z,100554
2018-05-21T17:46:48.139Z,100547
2018-05-21T17:51:40.489Z,100553
2018-05-21T17:56:31.921Z,100558
2018-05-21T18:01:23.823Z,100563
2018-05-21T18:06:15.437Z,100562
2018-05-21T18:11:06.980Z,100567
2018-05-21T18:15:58.493Z,100570
2018-05-21T18:20:50.043Z,100574
2018-05-21T18:25:42.340Z,100569
2018-05-21T18:30:33.914Z,100567
2018-05-21T18:35:25.408Z,100568
2018-05-21T18:40:16.943Z,100568
2018-05-21T18:45:08.448Z,100565
2018-05-21T18:49:59.961Z,100573
2018-05-21T18:54:51.488Z,100573
2018-05-21T18:59:43.000Z,100573
2018-05-21T19:04:34.522Z,100575
2018-05-21T19:09:26.027Z,100573
2018-05-21T19:14:17.577Z,100579
2018-05-21T19:19:09.116Z,100583
2018-05-21T19:24:00.640Z,100581
2018-05-21T19:28:52.185Z,100588
2018-05-21T19:33:43.750Z,100588
2018-05-21T19:38:36.007Z,100583
2018-05-21T19:43:27.537Z,100589
2018-05-21T19:48:19.089Z,100591
2018-05-21T19:53:10.647Z,100598
2018-05-21T19:58:02.254Z,100609
2018-05-21T20:02:53.765Z,100604
2018-05-21T20:07:46.156Z,100607
2018-05-21T20:12:37.722Z,100607
2018-05-21T20:17:29.230Z,100612
2018-05-21T20:22:20.787Z,100608
2018-05-21T20:27:12.333Z,100614
2018-05-21T20:32:03.889Z,100619
2018-05-21T20:36:56.214Z,100615
2018-05-21T20:41:47.766Z,100617
2018-05-21T20:46:40.053Z,100620
2018-05-21T20:51:31.590Z,100621
2018-05-21T20:56:23.124Z,100623
2018-05-21T21:01:14.612Z,100622
2018-05-21T21:06:06.121Z,100622
2018-05-21T21:10:57.639Z,100619
2018-05-21T21:15:49.152Z,100622
2018-05-21T21:20:40.763Z,100618
2018-05-21T21:25:33.097Z,100625
2018-05-21T21:30:25.399Z,100620
2018-05-21T21:35:16.931Z,100626
2018-05-21T21:40:08.461Z,100629
2018-05-21T21:45:00.977Z,100626
2018-05-21T21:49:52.482Z,100619
2018-05-21T21:54:43.967Z,100621
2018-05-21T21:59:36.194Z,100624
2018-05-21T22:04:27.705Z,100628
2018-05-21T22:09:19.241Z,100626
2018-05-21T22:14:10.731Z,100629
2018-05-21T22:19:03.043Z,100630
2018-05-21T22:23:56.039Z,100631
2018-05-21T22:28:48.271Z,100632
2018-05-21T22:33:39.807Z,100629
2018-05-21T22:38:31.389Z,100623
2018-05-21T22:43:22.940Z,100619
2018-05-21T22:48:14.489Z,100624
2018-05-21T22:53:06.014Z,100635
2018-05-21T22:57:57.522Z,100649
2018-05-21T23:02:49.009Z,100658
2018-05-21T23:07:40.559Z,100663
2018-05-21T23:12:32.847Z,100653
2018-05-21T23:17:24.365Z,100651
2018-05-21T23:22:16.003Z,100651
2018-05-21T23:27:07.511Z,100639
2018-05-21T23:31:59.008Z,100636
2018-05-21T23:36:50.493Z,100630
2018-05-21T23:41:43.742Z,100627
2018-05-21T23:46:35.256Z,100619
2018-05-21T23:51:26.752Z,100607
2018-05-21T23:56:18.256Z,100593
